Time;durP1;ratioP1;P1;durP2;ratioP2;P2;SDS_P1;SDS_P2;PMS_P1;PMS_P2;Temp;Humidity;BMP_temperature;BMP_pressure;BME280_temperature;BME280_humidity;BME280_pressure;Samples;Min_cycle;Max_cycle;Signal;HPM_P1;HPM_P2
2021/03/17 00:02:27;;;;;;;0.40;0.40;;;;;;;2.26;88.62;99592.22;1760913;81;21609;-44
2021/03/17 00:05:48;;;;;;;0.65;0.65;;;;;;;2.25;88.68;99586.55;1750998;81;21154;-44
2021/03/17 00:09:07;;;;;;;0.17;0.17;;;;;;;2.24;88.63;99582.20;1725217;82;21166;-44
2021/03/17 00:12:28;;;;;;;0.25;0.25;;;;;;;2.22;88.59;99579.47;1727557;81;21135;-44
2021/03/17 00:15:50;;;;;;;0.37;0.37;;;;;;;2.21;88.73;99579.20;1750924;81;21190;-44
2021/03/17 00:19:11;;;;;;;0.28;0.28;;;;;;;2.19;88.92;99569.19;1754710;81;21142;-43
2021/03/17 00:22:29;;;;;;;0.25;0.25;;;;;;;2.16;88.88;99565.10;1761494;81;21137;-43
2021/03/17 00:25:48;;;;;;;0.90;0.90;;;;;;;2.18;88.96;99564.84;1766563;81;21121;-43
2021/03/17 00:29:08;;;;;;;0.62;0.62;;;;;;;2.18;89.08;99562.14;1751515;80;21154;-43
2021/03/17 00:32:27;;;;;;;0.20;0.20;;;;;;;2.14;89.16;99565.87;1739104;82;21217;-44
2021/03/17 00:35:47;;;;;;;0.72;0.72;;;;;;;2.14;89.31;99563.98;1738972;81;21170;-44
2021/03/17 00:39:06;;;;;;;0.23;0.23;;;;;;;2.14;89.35;99565.34;1739132;82;21149;-43
2021/03/17 00:42:24;;;;;;;0.20;0.20;;;;;;;2.13;89.50;99565.06;1736816;82;21153;-44
2021/03/17 00:45:43;;;;;;;0.10;0.10;;;;;;;2.11;89.51;99560.45;1789404;78;21472;-44
2021/03/17 00:48:46;;;;;;;0.60;0.60;;;;;;;2.12;89.44;99563.41;1806961;79;21123;-43
2021/03/17 00:51:47;;;;;;;0.47;0.47;;;;;;;2.14;89.34;99557.25;1790213;80;21157;-44
2021/03/17 00:55:06;;;;;;;0.45;0.45;;;;;;;2.14;89.34;99558.60;1763392;81;21129;-44
2021/03/17 00:58:08;;;;;;;0.30;0.17;;;;;;;2.14;89.52;99557.25;1761410;81;21146;-43
2021/03/17 01:01:10;;;;;;;0.37;0.30;;;;;;;2.14;89.68;99530.84;1757218;81;21146;-43
2021/03/17 01:04:10;;;;;;;0.13;0.13;;;;;;;2.10;89.89;99538.61;1777383;79;21150;-43
2021/03/17 01:07:12;;;;;;;0.80;0.75;;;;;;;2.11;89.98;99534.84;1761298;81;21154;-43
2021/03/17 01:10:16;;;;;;;0.15;0.15;;;;;;;2.14;90.12;99537.58;1763336;81;21553;-44
2021/03/17 01:13:16;;;;;;;0.50;0.47;;;;;;;2.14;90.04;99527.61;1763351;81;21170;-43
2021/03/17 01:16:16;;;;;;;0.00;0.00;;;;;;;2.17;90.00;99534.38;1766813;79;21676;-44
2021/03/17 01:19:19;;;;;;;1.55;1.00;;;;;;;2.20;90.20;99527.17;1766571;81;21157;-44
2021/03/17 01:22:19;;;;;;;0.20;0.20;;;;;;;2.18;90.17;99528.45;1794404;79;21159;-44
2021/03/17 01:25:24;;;;;;;0.30;0.30;;;;;;;2.18;90.13;99531.98;1795419;79;21145;-44
2021/03/17 01:28:25;;;;;;;0.47;0.47;;;;;;;2.18;90.25;99527.95;1820757;78;21497;-43
2021/03/17 01:31:25;;;;;;;0.55;0.55;;;;;;;2.17;90.27;99536.27;1816041;78;21389;-44
2021/03/17 01:34:25;;;;;;;0.65;0.65;;;;;;;2.17;90.51;99537.61;1761844;81;21149;-43
2021/03/17 01:37:26;;;;;;;0.55;0.40;;;;;;;2.17;90.67;99530.88;1756500;81;21171;-44
2021/03/17 01:40:30;;;;;;;0.28;0.28;;;;;;;2.16;90.85;99532.77;1806775;79;21163;-43
2021/03/17 01:43:31;;;;;;;0.78;0.78;;;;;;;2.15;90.88;99531.11;1812338;79;21130;-44
2021/03/17 01:46:32;;;;;;;0.10;0.10;;;;;;;2.15;90.81;99535.99;1828194;78;21545;-44
2021/03/17 01:49:33;;;;;;;0.33;0.33;;;;;;;2.17;90.93;99532.22;1828523;78;21139;-44
2021/03/17 01:52:33;;;;;;;0.47;0.47;;;;;;;2.17;91.07;99532.22;1824423;78;21174;-44
2021/03/17 01:55:33;;;;;;;1.65;1.55;;;;;;;2.15;91.05;99529.77;1772467;79;21137;-43
2021/03/17 01:58:39;;;;;;;0.10;0.10;;;;;;;2.14;91.06;99531.64;1795915;79;21841;-44
2021/03/17 02:01:41;;;;;;;0.30;0.30;;;;;;;2.18;90.95;99526.59;1772905;79;21173;-44
2021/03/17 02:04:42;;;;;;;0.33;0.33;;;;;;;2.18;91.08;99529.29;1796219;79;21160;-43
2021/03/17 02:07:42;;;;;;;0.53;0.53;;;;;;;2.17;91.05;99521.44;1796139;79;21742;-43
2021/03/17 02:10:42;;;;;;;0.10;0.10;;;;;;;2.16;90.98;99526.02;1806863;78;21103;-44
2021/03/17 02:13:52;;;;;;;0.68;0.42;;;;;;;2.18;91.05;99513.63;1790560;80;21134;-44
2021/03/17 02:17:05;;;;;;;0.78;0.37;;;;;;;2.19;91.07;99508.54;1812579;79;21131;-43
2021/03/17 02:20:21;;;;;;;0.10;0.10;;;;;;;2.17;91.15;99510.66;1753901;81;21145;-43
2021/03/17 02:23:38;;;;;;;0.40;0.40;;;;;;;2.14;91.20;99512.78;1763641;81;21158;-44
2021/03/17 02:27:03;;;;;;;0.42;0.37;;;;;;;2.17;91.01;99509.31;1789786;79;21131;-43
2021/03/17 02:30:51;;;;;;;0.90;0.90;;;;;;;2.17;91.08;99502.03;1742239;81;21528;-43
2021/03/17 02:34:06;;;;;;;0.53;0.53;;;;;;;2.16;91.27;99503.11;1763779;81;21171;-43
2021/03/17 02:37:11;;;;;;;0.40;0.28;;;;;;;2.17;91.32;99497.19;1763826;79;21743;-43
2021/03/17 02:40:16;;;;;;;0.20;0.20;;;;;;;2.17;91.48;99499.88;1763369;81;21157;-44
2021/03/17 02:43:21;;;;;;;0.33;0.33;;;;;;;2.18;91.36;99502.84;1733621;81;21146;-44
2021/03/17 02:46:21;;;;;;;1.07;0.72;;;;;;;2.20;91.40;99504.77;1789803;79;21170;-45
2021/03/17 02:49:28;;;;;;;0.30;0.30;;;;;;;2.20;91.29;99496.68;1757960;81;21171;-44
2021/03/17 02:52:30;;;;;;;0.65;0.65;;;;;;;2.21;91.39;99499.14;1764357;79;21157;-44
2021/03/17 02:55:40;;;;;;;0.10;0.10;;;;;;;2.22;91.41;99497.25;1791554;79;21127;-43
2021/03/17 02:58:45;;;;;;;0.62;0.62;;;;;;;2.21;91.41;99495.09;1791874;79;21128;-44
2021/03/17 03:01:45;;;;;;;0.68;0.68;;;;;;;2.20;91.38;99502.91;1807411;78;21110;-44
2021/03/17 03:04:47;;;;;;;1.00;0.70;;;;;;;2.20;91.48;99503.42;1774054;79;21220;-43
2021/03/17 03:07:51;;;;;;;0.37;0.37;;;;;;;2.19;91.65;99500.45;1773000;78;21134;-43
2021/03/17 03:10:53;;;;;;;0.20;0.20;;;;;;;2.20;91.69;99500.72;1731984;82;21626;-44
2021/03/17 03:13:58;;;;;;;0.10;0.10;;;;;;;2.20;91.51;99498.03;1786558;80;21127;-43
2021/03/17 03:17:03;;;;;;;0.72;0.68;;;;;;;2.20;91.62;99498.03;1776275;79;21114;-44
2021/03/17 03:20:05;;;;;;;0.10;0.10;;;;;;;2.18;91.72;99496.95;1817588;78;21115;-43
2021/03/17 03:23:05;;;;;;;1.62;0.40;;;;;;;2.17;91.78;99499.88;1739161;81;21657;-44
2021/03/17 03:26:09;;;;;;;0.55;0.55;;;;;;;2.16;91.88;99508.50;1786554;80;21174;-43
2021/03/17 03:29:12;;;;;;;0.25;0.25;;;;;;;2.15;91.92;99500.11;1708350;82;21155;-44
2021/03/17 03:32:14;;;;;;;0.85;0.85;;;;;;;2.14;91.90;99492.56;1788885;78;21481;-44
2021/03/17 03:35:17;;;;;;;0.10;0.10;;;;;;;2.14;91.92;99502.00;1816158;78;21641;-43
2021/03/17 03:38:20;;;;;;;0.93;0.93;;;;;;;2.13;91.95;99494.98;1807079;78;21537;-44
2021/03/17 03:41:20;;;;;;;0.30;0.30;;;;;;;2.11;92.06;99497.11;1803932;79;21151;-44
2021/03/17 03:44:21;;;;;;;0.50;0.50;;;;;;;2.09;92.21;99495.73;1812505;78;21560;-47
2021/03/17 03:47:22;;;;;;;0.30;0.30;;;;;;;2.09;92.28;99490.34;1817941;78;21594;-45
2021/03/17 03:50:26;;;;;;;2.50;0.28;;;;;;;2.08;92.34;99487.38;1826066;78;21527;-44
2021/03/17 03:53:58;;;;;;;0.30;0.30;;;;;;;2.06;92.41;99486.26;1817635;78;21170;-45
2021/03/17 03:57:13;;;;;;;0.20;0.20;;;;;;;2.05;92.55;99482.45;1789029;79;21130;-45
2021/03/17 04:00:14;;;;;;;5.33;0.42;;;;;;;2.05;92.67;99483.80;1812485;79;21182;-44
2021/03/17 04:03:20;;;;;;;0.25;0.25;;;;;;;2.02;92.74;99485.11;1812520;78;21095;-45
2021/03/17 04:06:24;;;;;;;0.55;0.55;;;;;;;2.01;92.85;99488.88;1812643;78;21637;-45
2021/03/17 04:09:41;;;;;;;0.55;0.37;;;;;;;2.02;92.90;99484.30;1819039;78;21466;-45
2021/03/17 04:12:43;;;;;;;0.15;0.15;;;;;;;2.01;92.96;99474.06;1788755;79;21157;-45
2021/03/17 04:15:46;;;;;;;0.28;0.28;;;;;;;2.00;93.15;99475.10;1812308;79;21134;-45
2021/03/17 04:18:51;;;;;;;0.20;0.20;;;;;;;2.00;93.25;99479.69;1812606;78;21261;-44
2021/03/17 04:21:53;;;;;;;0.95;0.55;;;;;;;1.99;93.26;99474.83;1812507;79;21150;-45
2021/03/17 04:24:53;;;;;;;0.00;0.00;;;;;;;2.00;93.44;99472.95;1785396;79;21273;-44
2021/03/17 04:27:54;;;;;;;1.35;0.45;;;;;;;2.00;93.57;99485.07;1781426;78;21165;-46
2021/03/17 04:30:55;;;;;;;0.47;0.47;;;;;;;1.99;93.67;99480.22;1821143;78;21131;-45
2021/03/17 04:33:56;;;;;;;0.53;0.53;;;;;;;1.98;93.87;99479.11;1792486;78;21112;-44
2021/03/17 04:36:56;;;;;;;0.35;0.28;;;;;;;1.97;94.11;99487.73;1796056;79;21119;-44
2021/03/17 04:40:00;;;;;;;0.25;0.25;;;;;;;1.94;94.41;99473.41;1825921;78;21130;-44
2021/03/17 04:43:02;;;;;;;0.28;0.28;;;;;;;1.93;94.71;99473.13;1821666;78;21024;-45
2021/03/17 04:46:09;;;;;;;0.20;0.20;;;;;;;1.92;94.95;99480.38;1792867;78;21187;-45
2021/03/17 04:49:10;;;;;;;0.10;0.10;;;;;;;1.90;95.39;99475.80;1772322;80;20960;-45
2021/03/17 04:52:11;;;;;;;0.20;0.20;;;;;;;1.90;95.72;99473.61;1774105;80;21118;-44
2021/03/17 04:55:13;;;;;;;0.20;0.20;;;;;;;1.88;95.91;99486.50;1790836;79;21126;-45
2021/03/17 04:58:21;;;;;;;0.97;0.83;;;;;;;1.88;96.10;99479.26;1771583;80;21182;-45
2021/03/17 05:01:22;;;;;;;2.85;0.78;;;;;;;1.87;96.50;99484.88;1776703;80;21122;-46
2021/03/17 05:04:24;;;;;;;0.72;0.70;;;;;;;1.86;97.02;99479.22;1775172;80;21426;-45
2021/03/17 05:07:24;;;;;;;0.25;0.25;;;;;;;1.82;97.43;99486.95;1750166;80;21513;-46
2021/03/17 05:10:25;;;;;;;2.02;0.33;;;;;;;1.81;97.68;99493.95;1762546;80;21526;-44
2021/03/17 05:13:25;;;;;;;0.15;0.15;;;;;;;1.81;98.01;99502.04;1764003;80;21171;-45
2021/03/17 05:16:25;;;;;;;0.00;0.00;;;;;;;1.80;98.49;99500.39;1761455;80;21429;-44
2021/03/17 05:19:26;;;;;;;0.10;0.10;;;;;;;1.80;98.70;99496.34;1770812;79;20953;-45
2021/03/17 05:22:26;;;;;;;0.25;0.25;;;;;;;1.79;98.99;99497.42;1760260;80;21148;-45
2021/03/17 05:25:28;;;;;;;0.30;0.30;;;;;;;1.77;99.22;99487.42;1764411;80;21130;-44
2021/03/17 05:28:29;;;;;;;3.72;1.35;;;;;;;1.78;99.45;99506.55;1776136;80;21173;-45
2021/03/17 05:31:30;;;;;;;0.10;0.10;;;;;;;1.77;99.83;99508.43;1776623;80;21154;-45
2021/03/17 05:34:30;;;;;;;0.00;0.00;;;;;;;1.75;100.00;99508.39;1769397;80;21142;-46
2021/03/17 05:37:32;;;;;;;0.85;0.70;;;;;;;1.75;100.00;99505.70;1765445;80;21130;-46
2021/03/17 05:40:33;;;;;;;0.20;0.20;;;;;;;1.74;100.00;99502.19;1767412;80;21142;-44
2021/03/17 05:43:33;;;;;;;0.08;0.08;;;;;;;1.72;100.00;99505.12;1774425;80;21565;-44
2021/03/17 05:46:34;;;;;;;0.25;0.25;;;;;;;1.74;100.00;99507.58;1768719;79;21199;-46
2021/03/17 05:49:34;;;;;;;0.30;0.30;;;;;;;1.72;100.00;99497.04;1811034;78;21129;-45
2021/03/17 05:52:35;;;;;;;1.25;0.70;;;;;;;1.72;100.00;99509.69;1804850;78;21099;-45
2021/03/17 05:55:35;;;;;;;2.58;0.90;;;;;;;1.71;100.00;99504.84;1787096;79;21138;-45
2021/03/17 05:58:36;;;;;;;0.68;0.68;;;;;;;1.69;100.00;99499.42;1810213;78;21122;-45
2021/03/17 06:01:36;;;;;;;0.10;0.10;;;;;;;1.68;100.00;99509.38;1807245;78;21106;-44
2021/03/17 06:04:38;;;;;;;0.35;0.35;;;;;;;1.70;100.00;99508.58;1808920;78;21134;-45
2021/03/17 06:08:01;;;;;;;0.20;0.20;;;;;;;1.71;100.00;99514.81;1757448;79;21481;-45
2021/03/17 06:11:02;;;;;;;;;;;;;;;1.74;100.00;99512.16;1792577;78;21161;-45
2021/03/17 06:14:02;;;;;;;2.75;2.50;;;;;;;1.74;100.00;99509.47;1777030;79;20249;-45
2021/03/17 06:17:10;;;;;;;0.45;0.45;;;;;;;1.77;100.00;99506.27;1749906;81;21167;-44
2021/03/17 06:20:14;;;;;;;0.20;0.20;;;;;;;1.78;100.00;99510.59;1767771;81;21177;-45
2021/03/17 06:23:14;;;;;;;5.55;0.72;;;;;;;1.80;100.00;99513.32;1767378;81;21170;-44
2021/03/17 06:26:16;;;;;;;2.95;2.20;;;;;;;1.80;100.00;99511.97;1818031;78;21131;-45
2021/03/17 06:29:17;;;;;;;0.17;0.17;;;;;;;1.82;100.00;99507.70;1813451;78;21578;-45
2021/03/17 06:32:36;;;;;;;0.53;0.53;;;;;;;1.83;100.00;99509.31;1805306;78;21153;-45
2021/03/17 06:35:37;;;;;;;2.05;0.62;;;;;;;1.86;100.00;99510.20;1769056;80;21139;-44
2021/03/17 06:38:38;;;;;;;0.15;0.15;;;;;;;1.87;100.00;99502.39;1769434;79;21190;-44
2021/03/17 06:42:00;;;;;;;0.57;0.57;;;;;;;1.87;100.00;99503.20;1788503;78;21106;-44
2021/03/17 06:45:03;;;;;;;1.55;1.17;;;;;;;1.90;100.00;99505.94;1769083;81;21138;-44
2021/03/17 06:48:06;;;;;;;0.30;0.30;;;;;;;1.92;100.00;99502.47;1761763;81;21111;-44
2021/03/17 06:51:19;;;;;;;0.85;0.85;;;;;;;1.93;100.00;99496.04;1714722;82;21118;-44
2021/03/17 06:54:20;;;;;;;0.53;0.53;;;;;;;1.94;100.00;99504.39;1707345;84;21146;-44
2021/03/17 06:57:27;;;;;;;1.65;0.30;;;;;;;1.95;100.00;99499.27;1705150;82;21183;-44
2021/03/17 07:00:34;;;;;;;1.45;0.25;;;;;;;1.96;100.00;99504.16;1786237;80;21126;-44
2021/03/17 07:03:34;;;;;;;0.80;0.80;;;;;;;1.95;100.00;99506.02;1760609;80;21146;-44
2021/03/17 07:06:34;;;;;;;1.02;0.13;;;;;;;1.95;100.00;99500.63;1761415;80;21158;-44
2021/03/17 07:09:37;;;;;;;0.35;0.35;;;;;;;1.96;100.00;99500.93;1791772;80;21154;-44
2021/03/17 07:12:38;;;;;;;8.33;1.17;;;;;;;1.95;100.00;99499.27;1737136;82;21568;-44
2021/03/17 07:15:41;;;;;;;0.30;0.30;;;;;;;1.97;100.00;99503.09;1786646;80;21597;-44
2021/03/17 07:18:42;;;;;;;0.10;0.10;;;;;;;1.97;100.00;99498.50;1760875;81;21217;-45
2021/03/17 07:21:47;;;;;;;0.40;0.40;;;;;;;1.96;100.00;99492.84;1748643;80;21114;-44
2021/03/17 07:24:51;;;;;;;0.00;0.00;;;;;;;1.99;100.00;99491.00;1791791;80;21248;-45
2021/03/17 07:27:57;;;;;;;0.62;0.62;;;;;;;2.00;100.00;99493.96;1791641;80;21142;-44
2021/03/17 07:30:58;;;;;;;2.08;0.55;;;;;;;2.02;100.00;99497.23;1776817;80;21149;-44
2021/03/17 07:33:58;;;;;;;0.37;0.37;;;;;;;2.01;100.00;99491.57;1786830;80;21162;-44
2021/03/17 07:37:06;;;;;;;0.28;0.25;;;;;;;2.01;100.00;99490.22;1775509;80;21126;-44
2021/03/17 07:40:07;;;;;;;0.35;0.35;;;;;;;2.03;100.00;99497.54;1761019;80;21189;-44
2021/03/17 07:43:07;;;;;;;0.20;0.20;;;;;;;2.05;100.00;99487.33;1772520;80;21582;-44
2021/03/17 07:46:08;;;;;;;0.28;0.28;;;;;;;2.07;100.00;99491.11;1769024;80;21168;-45
2021/03/17 07:49:09;;;;;;;1.02;1.02;;;;;;;2.08;100.00;99492.22;1762568;79;21156;-47
2021/03/17 07:52:11;;;;;;;0.40;0.40;;;;;;;2.06;100.00;99497.03;1775900;79;21490;-44
2021/03/17 07:55:13;;;;;;;0.72;0.68;;;;;;;2.05;100.00;99497.27;1775312;79;21135;-44
2021/03/17 07:58:13;;;;;;;1.57;0.42;;;;;;;2.04;100.00;99496.46;1755089;81;21581;-47
2021/03/17 08:01:14;;;;;;;0.00;0.00;;;;;;;2.04;100.00;99495.11;1781724;80;21176;-47
2021/03/17 08:04:14;;;;;;;2.90;1.95;;;;;;;2.05;100.00;99498.11;1728370;82;21164;-46
2021/03/17 08:07:15;;;;;;;0.85;0.82;;;;;;;2.06;100.00;99499.73;1780401;79;21134;-44
2021/03/17 08:10:16;;;;;;;0.20;0.20;;;;;;;2.06;100.00;99499.73;1790315;79;21138;-44
2021/03/17 08:13:21;;;;;;;3.05;1.65;;;;;;;2.06;100.00;99495.69;1809058;79;21134;-44
2021/03/17 08:16:37;;;;;;;7.47;1.17;;;;;;;2.07;100.00;99497.84;1779877;80;21147;-44
2021/03/17 08:19:37;;;;;;;0.60;0.60;;;;;;;2.03;100.00;99499.39;1811728;78;21107;-44
2021/03/17 08:22:42;;;;;;;1.00;1.00;;;;;;;2.02;100.00;99501.27;1800211;79;27446;-44
2021/03/17 08:25:47;;;;;;;0.00;0.00;;;;;;;2.01;100.00;99494.80;1811810;79;21143;-44
2021/03/17 08:29:01;;;;;;;0.10;0.10;;;;;;;1.99;100.00;99496.92;1780474;79;21111;-45
2021/03/17 08:32:01;;;;;;;1.55;0.45;;;;;;;1.97;100.00;99505.78;1780317;80;21573;-45
2021/03/17 08:35:05;;;;;;;0.03;0.03;;;;;;;1.96;100.00;99504.16;1789336;79;21126;-45
2021/03/17 08:38:05;;;;;;;0.23;0.23;;;;;;;1.98;100.00;99501.50;1780859;79;21146;-45
2021/03/17 08:41:05;;;;;;;0.40;0.17;;;;;;;2.04;100.00;99500.50;1780621;79;21146;-45
2021/03/17 08:44:18;;;;;;;0.68;0.68;;;;;;;2.07;100.00;99496.50;1777984;79;21118;-45
2021/03/17 08:47:29;;;;;;;0.20;0.20;;;;;;;2.09;100.00;99498.42;1812774;79;21664;-45
2021/03/17 08:50:31;;;;;;;0.60;0.60;;;;;;;2.13;100.00;99507.12;1834914;78;21156;-47
2021/03/17 08:53:47;;;;;;;0.10;0.10;;;;;;;2.17;100.00;99507.42;1775223;79;21525;-45
2021/03/17 08:56:55;;;;;;;0.10;0.10;;;;;;;2.16;100.00;99501.77;1787514;79;21145;-45
2021/03/17 09:00:02;;;;;;;0.10;0.10;;;;;;;2.19;100.00;99497.75;1762050;80;21417;-45
2021/03/17 09:03:03;;;;;;;0.00;0.00;;;;;;;2.23;100.00;99499.72;1800618;79;21157;-45
2021/03/17 09:06:26;;;;;;;0.33;0.33;;;;;;;2.28;100.00;99500.33;1803284;79;21521;-45
2021/03/17 09:09:26;;;;;;;0.10;0.10;;;;;;;2.31;100.00;99503.86;1787281;79;21079;-46
2021/03/17 09:12:41;;;;;;;0.20;0.20;;;;;;;2.32;100.00;99500.90;1770036;81;21126;-45
2021/03/17 09:15:55;;;;;;;0.10;0.10;;;;;;;2.33;100.00;99501.74;1784962;79;21207;-45
2021/03/17 09:19:14;;;;;;;0.23;0.23;;;;;;;2.36;100.00;99510.14;1770630;80;20995;-46
2021/03/17 09:22:29;;;;;;;0.10;0.10;;;;;;;2.42;100.00;99507.51;1754826;81;21188;-45
2021/03/17 09:25:49;;;;;;;0.37;0.37;;;;;;;2.43;100.00;99518.59;1792609;79;21259;-45
2021/03/17 09:28:49;;;;;;;5.35;0.37;;;;;;;2.44;100.00;99514.28;1770055;80;21132;-45
2021/03/17 09:31:49;;;;;;;0.10;0.10;;;;;;;2.42;100.00;99515.06;1782645;79;21145;-45
2021/03/17 09:34:50;;;;;;;0.00;0.00;;;;;;;2.37;100.00;99525.77;1781716;79;21229;-44
2021/03/17 09:37:50;;;;;;;0.20;0.20;;;;;;;2.38;100.00;99523.38;1771645;80;21619;-45
2021/03/17 09:41:11;;;;;;;0.00;0.00;;;;;;;2.38;100.00;99529.31;1771020;80;48907;-45
2021/03/17 09:44:14;;;;;;;;;;;;;;;2.37;100.00;99535.21;1815729;78;21117;-45
2021/03/17 09:47:14;;;;;;;0.00;0.00;;;;;;;2.36;100.00;99537.64;1831354;78;20520;-45
2021/03/17 09:50:24;;;;;;;0.10;0.10;;;;;;;2.32;100.00;99539.19;1793075;79;21652;-45
2021/03/17 09:53:25;;;;;;;0.05;0.05;;;;;;;2.31;100.00;99533.52;1784711;79;21577;-45
2021/03/17 09:56:50;;;;;;;0.78;0.78;;;;;;;2.37;100.00;99535.21;1786200;79;21110;-44
2021/03/17 09:59:51;;;;;;;0.10;0.10;;;;;;;2.44;100.00;99530.47;1765799;81;21160;-45
2021/03/17 10:02:54;;;;;;;0.10;0.10;;;;;;;2.43;100.00;99532.89;1767918;79;21208;-44
2021/03/17 10:06:02;;;;;;;0.10;0.10;;;;;;;2.40;100.00;99527.16;1778583;79;21162;-44
2021/03/17 10:09:02;;;;;;;0.20;0.20;;;;;;;2.37;100.00;99532.52;1783838;80;21177;-46
2021/03/17 10:12:17;;;;;;;0.00;0.00;;;;;;;2.40;100.00;99529.34;1808838;78;21094;-45
2021/03/17 10:15:28;;;;;;;0.72;0.72;;;;;;;2.48;100.00;99526.22;1871893;76;29457;-44
2021/03/17 10:18:29;;;;;;;0.57;0.23;;;;;;;2.40;100.00;99528.50;1788202;80;21154;-45
2021/03/17 10:21:34;;;;;;;0.00;0.00;;;;;;;2.42;100.00;99532.59;1784038;80;21134;-45
2021/03/17 10:24:50;;;;;;;0.57;0.57;;;;;;;2.46;100.00;99530.23;1732150;80;21165;-44
2021/03/17 10:27:53;;;;;;;0.10;0.10;;;;;;;2.46;100.00;99532.38;1751485;81;21147;-44
2021/03/17 10:30:54;;;;;;;0.00;0.00;;;;;;;2.48;100.00;99534.30;1761238;81;27493;-44
2021/03/17 10:33:58;;;;;;;0.60;0.60;;;;;;;2.48;100.00;99538.89;1734024;81;21166;-45
2021/03/17 10:37:03;;;;;;;0.20;0.20;;;;;;;2.49;100.00;99533.77;1730630;82;21186;-44
2021/03/17 10:40:13;;;;;;;0.00;0.00;;;;;;;2.48;100.00;99534.84;1742061;80;21227;-48
2021/03/17 10:43:19;;;;;;;0.20;0.20;;;;;;;2.49;100.00;99538.63;1749830;81;21138;-47
2021/03/17 10:46:19;;;;;;;0.00;0.00;;;;;;;2.52;100.00;99542.20;1754088;80;21135;-44
2021/03/17 10:49:21;;;;;;;0.47;0.20;;;;;;;2.52;100.00;99539.50;1759098;80;21469;-44
2021/03/17 10:52:23;;;;;;;8.58;1.30;;;;;;;2.53;100.00;99542.47;1730561;81;21214;-44
2021/03/17 10:55:34;;;;;;;0.33;0.15;;;;;;;2.55;100.00;99541.69;1734253;81;20980;-44
2021/03/17 10:58:36;;;;;;;0.10;0.10;;;;;;;2.55;100.00;99544.38;1760785;80;21206;-47
2021/03/17 11:01:36;;;;;;;0.42;0.42;;;;;;;2.53;100.00;99545.16;1739114;81;21660;-46
2021/03/17 11:04:38;;;;;;;0.20;0.20;;;;;;;2.53;100.00;99547.86;1760958;81;21146;-47
2021/03/17 11:08:01;;;;;;;0.20;0.20;;;;;;;2.51;100.00;99547.28;1764221;80;21200;-46
2021/03/17 11:11:03;;;;;;;0.00;0.00;;;;;;;2.52;100.00;99542.70;1762009;81;21161;-46
2021/03/17 11:14:03;;;;;;;0.10;0.10;;;;;;;2.54;100.00;99538.69;1768383;80;21153;-47
2021/03/17 11:17:12;;;;;;;0.13;0.13;;;;;;;2.59;100.00;99539.30;1763471;81;21524;-47
2021/03/17 11:20:15;;;;;;;0.35;0.35;;;;;;;2.62;100.00;99533.94;1767068;81;21142;-44
2021/03/17 11:23:25;;;;;;;;;;;;;;;2.60;100.00;99534.20;1766919;81;21682;-44
2021/03/17 11:26:36;;;;;;;0.10;0.10;;;;;;;2.54;100.00;99528.44;1766412;81;20275;-45
2021/03/17 11:29:36;;;;;;;0.30;0.30;;;;;;;2.58;100.00;99536.33;1765835;81;21166;-47
2021/03/17 11:32:40;;;;;;;;;;;;;;;2.61;100.00;99537.71;1770077;80;21127;-47
2021/03/17 11:35:42;;;;;;;0.20;0.20;;;;;;;2.61;100.00;99533.66;1767041;81;20247;-45
2021/03/17 11:38:43;;;;;;;0.00;0.00;;;;;;;2.59;100.00;99536.06;1766232;81;21175;-45
2021/03/17 11:41:46;;;;;;;0.10;0.10;;;;;;;2.59;100.00;99536.59;1763782;81;20976;-45
2021/03/17 11:44:49;;;;;;;0.62;0.45;;;;;;;2.55;100.00;99535.48;1745729;81;22108;-45
2021/03/17 11:47:49;;;;;;;0.00;0.00;;;;;;;2.55;100.00;99534.14;1769886;80;21150;-48
2021/03/17 11:50:56;;;;;;;0.10;0.10;;;;;;;2.56;100.00;99538.45;1788337;80;21099;-45
2021/03/17 11:53:58;;;;;;;0.25;0.25;;;;;;;2.58;100.00;99534.98;1786733;80;21162;-44
2021/03/17 11:56:59;;;;;;;0.00;0.00;;;;;;;2.61;100.00;99539.06;1766343;81;21154;-44
2021/03/17 11:59:59;;;;;;;0.08;0.08;;;;;;;2.62;100.00;99546.08;1765220;81;21181;-45
2021/03/17 12:03:00;;;;;;;0.00;0.00;;;;;;;2.59;100.00;99545.50;1749742;81;21131;-44
2021/03/17 12:06:00;;;;;;;0.10;0.10;;;;;;;2.57;100.00;99540.07;1761964;80;21134;-45
2021/03/17 12:09:00;;;;;;;0.37;0.37;;;;;;;2.53;100.00;99546.51;1766863;81;21162;-47
2021/03/17 12:12:03;;;;;;;0.10;0.10;;;;;;;2.51;100.00;99540.55;1761166;80;21141;-47
2021/03/17 12:15:04;;;;;;;0.10;0.10;;;;;;;2.52;100.00;99546.23;1719022;82;21126;-47
2021/03/17 12:18:05;;;;;;;0.37;0.37;;;;;;;2.55;100.00;99551.13;1716756;82;21157;-47
2021/03/17 12:21:05;;;;;;;0.05;0.05;;;;;;;2.58;100.00;99548.47;1741430;81;21139;-47
2021/03/17 12:24:06;;;;;;;1.05;0.88;;;;;;;2.57;100.00;99557.09;1728983;82;21165;-47
2021/03/17 12:27:07;;;;;;;0.10;0.10;;;;;;;2.54;100.00;99550.83;1715445;83;21164;-47
2021/03/17 12:30:08;;;;;;;0.10;0.10;;;;;;;2.52;100.00;99557.03;1728953;82;21456;-47
2021/03/17 12:33:10;;;;;;;0.10;0.10;;;;;;;2.47;100.00;99556.92;1715458;83;21123;-48
2021/03/17 12:36:13;;;;;;;0.10;0.10;;;;;;;2.49;100.00;99560.73;1743852;80;21132;-47
2021/03/17 12:39:14;;;;;;;;;;;;;;;2.52;100.00;99559.72;1734998;81;21177;-48
2021/03/17 12:42:15;;;;;;;0.10;0.10;;;;;;;2.49;100.00;99561.55;1731234;81;20269;-48
2021/03/17 12:45:16;;;;;;;0.08;0.08;;;;;;;2.50;100.00;99562.39;1717558;82;21170;-47
2021/03/17 12:48:18;;;;;;;0.00;0.00;;;;;;;2.47;100.00;99557.46;1730285;82;21127;-47
2021/03/17 12:51:19;;;;;;;0.20;0.20;;;;;;;2.46;100.00;99564.74;1759304;81;21118;-48
2021/03/17 12:54:20;;;;;;;0.00;0.00;;;;;;;2.48;100.00;99561.27;1723109;83;21161;-47
2021/03/17 12:57:20;;;;;;;0.00;0.00;;;;;;;2.52;100.00;99558.37;1706664;82;21478;-48
2021/03/17 13:00:25;;;;;;;0.00;0.00;;;;;;;2.57;100.00;99562.48;1700909;83;21524;-48
2021/03/17 13:03:25;;;;;;;0.00;0.00;;;;;;;2.62;100.00;99556.86;1728496;81;21111;-48
2021/03/17 13:06:25;;;;;;;0.00;0.00;;;;;;;2.67;100.00;99565.02;1741996;81;21130;-48
2021/03/17 13:09:26;;;;;;;0.00;0.00;;;;;;;2.70;100.00;99564.55;1747116;81;21210;-49
2021/03/17 13:12:28;;;;;;;0.05;0.05;;;;;;;2.67;100.00;99561.81;1726125;81;21156;-45
2021/03/17 13:15:30;;;;;;;1.00;0.35;;;;;;;2.65;100.00;99566.64;1771701;80;21478;-48
2021/03/17 13:18:31;;;;;;;0.00;0.00;;;;;;;2.62;100.00;99564.45;1759717;81;21218;-48
2021/03/17 13:21:32;;;;;;;0.10;0.10;;;;;;;2.62;100.00;99569.00;1759668;81;21124;-49
2021/03/17 13:24:32;;;;;;;0.10;0.10;;;;;;;2.60;100.00;99569.27;1782358;80;21145;-47
2021/03/17 13:27:35;;;;;;;0.50;0.50;;;;;;;2.57;100.00;99577.83;1781480;80;21150;-48
2021/03/17 13:30:35;;;;;;;0.00;0.00;;;;;;;2.52;100.00;99581.30;1762969;80;21134;-48
2021/03/17 13:33:36;;;;;;;0.75;0.75;;;;;;;2.49;100.00;99584.47;1718939;83;21233;-49
2021/03/17 13:36:36;;;;;;;0.08;0.08;;;;;;;2.48;100.00;99576.64;1723764;83;21144;-48
2021/03/17 13:39:36;;;;;;;0.20;0.20;;;;;;;2.48;100.00;99579.34;1750471;81;21164;-48
2021/03/17 13:42:37;;;;;;;0.10;0.10;;;;;;;2.47;100.00;99575.80;1750221;81;21153;-48
2021/03/17 13:45:38;;;;;;;0.20;0.20;;;;;;;2.46;100.00;99582.81;1750114;81;21147;-48
2021/03/17 13:48:41;;;;;;;0.00;0.00;;;;;;;2.45;100.00;99577.95;1787855;79;29163;-48
2021/03/17 13:51:43;;;;;;;0.17;0.17;;;;;;;2.45;100.00;99588.73;1787217;80;21547;-48
2021/03/17 13:54:46;;;;;;;0.10;0.10;;;;;;;2.44;100.00;99580.89;1787335;80;21669;-48
2021/03/17 13:57:47;;;;;;;0.17;0.17;;;;;;;2.43;100.00;99596.80;1787135;80;21146;-49
2021/03/17 14:00:48;;;;;;;0.62;0.62;;;;;;;2.40;100.00;99598.61;1753504;80;21151;-49
2021/03/17 14:03:48;;;;;;;0.10;0.10;;;;;;;2.37;100.00;99599.92;1755495;79;21565;-49
2021/03/17 14:06:50;;;;;;;0.00;0.00;;;;;;;2.33;100.00;99594.22;1752405;80;21217;-49
2021/03/17 14:09:50;;;;;;;0.35;0.35;;;;;;;2.33;100.00;99604.19;1772693;80;21261;-46
2021/03/17 14:12:52;;;;;;;1.20;0.33;;;;;;;2.31;100.00;99602.27;1729893;81;21229;-45
2021/03/17 14:15:53;;;;;;;1.45;0.75;;;;;;;2.28;100.00;99596.84;1735171;81;21131;-46
2021/03/17 14:18:53;;;;;;;0.08;0.08;;;;;;;2.27;100.00;99599.23;1757164;80;21162;-46
2021/03/17 14:21:54;;;;;;;0.30;0.30;;;;;;;2.29;100.00;99600.34;1763194;80;21142;-45
2021/03/17 14:24:59;;;;;;;;;;;;;;;2.30;100.00;99601.97;1775702;79;21544;-45
2021/03/17 14:28:00;;;;;;;0.00;0.00;;;;;;;2.31;100.00;99606.31;1780839;80;20266;-48
2021/03/17 14:31:02;;;;;;;0.00;0.00;;;;;;;2.29;100.00;99599.00;1761718;79;21166;-48
2021/03/17 14:34:03;;;;;;;0.00;0.00;;;;;;;2.27;100.00;99605.97;1750123;81;21454;-48
2021/03/17 14:37:04;;;;;;;0.57;0.57;;;;;;;2.27;100.00;99603.81;1761473;81;21158;-48